Time,TemperatureF,DewpointF,PressureIn,WindDirection,WindDirectionDegrees,WindSpeedMPH,WindSpeedGustMPH,Humidity,HourlyPrecipIn,Conditions,Clouds,dailyrainin,SoftwareType,DateUTC
2013-01-03 00:02:00,54.0,25.0,30.11,NE,41,0.0,-999.0,32,-99.99,,,-99.99,,2013-01-03 08:02:00,
2013-01-03 00:22:00,54.0,24.0,30.11,NE,42,0.0,-999.0,31,-99.99,,,-99.99,,2013-01-03 08:22:00,
2013-01-03 00:32:00,54.0,23.0,30.11,NE,42,0.0,-999.0,30,-99.99,,,-99.99,,2013-01-03 08:32:00,
2013-01-03 00:53:00,53.0,30.0,30.11,NNE,31,1.0,-999.0,41,-99.99,,,-99.99,,2013-01-03 08:53:00,
2013-01-03 01:02:00,52.0,25.0,30.12,NNE,28,1.0,-999.0,34,-99.99,,,-99.99,,2013-01-03 09:02:00,
2013-01-03 01:11:00,52.0,25.0,30.12,NNE,28,1.0,-999.0,34,-99.99,,,-99.99,,2013-01-03 09:11:00,
2013-01-03 01:22:00,53.0,24.0,30.12,NNE,28,1.0,-999.0,32,-99.99,,,-99.99,,2013-01-03 09:22:00,
2013-01-03 01:33:00,51.0,23.0,30.11,North,355,3.0,-999.0,33,-99.99,,,-99.99,,2013-01-03 09:33:00,
2013-01-03 01:42:00,51.0,23.0,30.11,North,355,3.0,-999.0,33,-99.99,,,-99.99,,2013-01-03 09:42:00,
2013-01-03 01:52:00,53.0,22.0,30.11,North,355,0.0,-999.0,30,-99.99,,,-99.99,,2013-01-03 09:52:00,
2013-01-03 02:01:00,53.0,22.0,30.11,North,355,0.0,-999.0,30,-99.99,,,-99.99,,2013-01-03 10:01:00,
2013-01-03 02:22:00,52.0,24.0,30.11,NNW,333,2.0,-999.0,33,-99.99,,,-99.99,,2013-01-03 10:22:00,
2013-01-03 02:32:00,51.0,21.0,30.11,NNE,15,4.0,-999.0,31,-99.99,,,-99.99,,2013-01-03 10:32:00,
2013-01-03 02:42:00,51.0,21.0,30.11,NNE,15,4.0,-999.0,31,-99.99,,,-99.99,,2013-01-03 10:42:00,
2013-01-03 02:52:00,53.0,21.0,30.11,NNE,15,1.0,-999.0,28,-99.99,,,-99.99,,2013-01-03 10:52:00,
2013-01-03 03:02:00,54.0,21.0,30.11,NNE,14,1.0,-999.0,27,-99.99,,,-99.99,,2013-01-03 11:02:00,
2013-01-03 03:32:00,55.0,20.0,30.10,NNE,14,0.0,-999.0,25,-99.99,,,-99.99,,2013-01-03 11:32:00,
2013-01-03 03:53:00,56.0,20.0,30.10,NNE,13,1.0,-999.0,24,-99.99,,,-99.99,,2013-01-03 11:53:00,
2013-01-03 04:02:00,55.0,20.0,30.10,North,9,0.0,-999.0,25,-99.99,,,-99.99,,2013-01-03 12:02:00,
2013-01-03 04:22:00,55.0,17.0,30.10,North,10,2.0,-999.0,22,-99.99,,,-99.99,,2013-01-03 12:22:00,
2013-01-03 04:32:00,55.0,21.0,30.09,North,10,0.0,-999.0,26,-99.99,,,-99.99,,2013-01-03 12:32:00,
2013-01-03 04:53:00,55.0,20.0,30.09,North,10,0.0,-999.0,25,-99.99,,,-99.99,,2013-01-03 12:53:00,
2013-01-03 05:02:00,55.0,22.0,30.09,North,11,0.0,-999.0,27,-99.99,,,-99.99,,2013-01-03 13:02:00,
2013-01-03 05:22:00,54.0,22.0,30.10,North,11,0.0,-999.0,29,-99.99,,,-99.99,,2013-01-03 13:22:00,
2013-01-03 05:32:00,54.0,22.0,30.10,North,11,0.0,-999.0,28,-99.99,,,-99.99,,2013-01-03 13:32:00,
2013-01-03 05:42:00,54.0,22.0,30.10,North,11,0.0,-999.0,28,-99.99,,,-99.99,,2013-01-03 13:42:00,
2013-01-03 05:53:00,55.0,21.0,30.10,North,11,0.0,-999.0,26,-99.99,,,-99.99,,2013-01-03 13:53:00,
2013-01-03 06:02:00,54.0,18.0,30.10,North,11,1.0,-999.0,24,-99.99,,,-99.99,,2013-01-03 14:02:00,
2013-01-03 06:12:00,54.0,18.0,30.10,North,11,1.0,-999.0,24,-99.99,,,-99.99,,2013-01-03 14:12:00,
2013-01-03 06:22:00,55.0,19.0,30.11,NE,46,1.0,-999.0,24,-99.99,,,-99.99,,2013-01-03 14:22:00,
2013-01-03 06:32:00,55.0,22.0,30.12,East,90,1.0,-999.0,27,-99.99,,,-99.99,,2013-01-03 14:32:00,
2013-01-03 06:42:00,55.0,22.0,30.12,East,90,1.0,-999.0,27,-99.99,,,-99.99,,2013-01-03 14:42:00,
2013-01-03 06:53:00,54.0,22.0,30.13,East,90,0.0,-999.0,29,-99.99,,,-99.99,,2013-01-03 14:53:00,
2013-01-03 07:02:00,53.0,21.0,30.13,East,91,0.0,-999.0,28,-99.99,,,-99.99,,2013-01-03 15:02:00,
2013-01-03 07:12:00,53.0,21.0,30.13,East,91,0.0,-999.0,28,-99.99,,,-99.99,,2013-01-03 15:12:00,
2013-01-03 07:22:00,53.0,25.0,30.14,East,91,0.0,-999.0,33,-99.99,,,-99.99,,2013-01-03 15:22:00,
2013-01-03 07:33:00,52.0,25.0,30.14,East,88,0.0,-999.0,34,-99.99,,,-99.99,,2013-01-03 15:33:00,
2013-01-03 07:42:00,52.0,25.0,30.14,East,88,0.0,-999.0,34,-99.99,,,-99.99,,2013-01-03 15:42:00,
2013-01-03 07:53:00,52.0,22.0,30.14,East,92,0.0,-999.0,31,-99.99,,,-99.99,,2013-01-03 15:53:00,
2013-01-03 08:02:00,53.0,21.0,30.14,East,88,0.0,-999.0,28,-99.99,,,-99.99,,2013-01-03 16:02:00,
2013-01-03 08:22:00,55.0,21.0,30.14,East,88,0.0,-999.0,26,-99.99,,,-99.99,,2013-01-03 16:22:00,
2013-01-03 08:32:00,55.0,22.0,30.15,East,89,0.0,-999.0,27,-99.99,,,-99.99,,2013-01-03 16:32:00,
2013-01-03 08:42:00,55.0,22.0,30.15,East,89,0.0,-999.0,27,-99.99,,,-99.99,,2013-01-03 16:42:00,
2013-01-03 08:53:00,55.0,22.0,30.16,East,93,0.0,-999.0,27,-99.99,,,-99.99,,2013-01-03 16:53:00,
2013-01-03 09:02:00,56.0,25.0,30.16,East,97,0.0,-999.0,30,-99.99,,,-99.99,,2013-01-03 17:02:00,
2013-01-03 09:42:00,54.0,33.0,30.18,SE,125,1.0,-999.0,45,-99.99,,,-99.99,,2013-01-03 17:42:00,
2013-01-03 09:53:00,56.0,37.0,30.18,SE,129,0.0,-999.0,49,-99.99,,,-99.99,,2013-01-03 17:53:00,
2013-01-03 10:02:00,56.0,38.0,30.18,SE,130,0.0,-999.0,50,-99.99,,,-99.99,,2013-01-03 18:02:00,
2013-01-03 10:22:00,57.0,35.0,30.18,ESE,115,0.0,-999.0,44,-99.99,,,-99.99,,2013-01-03 18:22:00,
2013-01-03 10:32:00,57.0,37.0,30.18,ESE,120,0.0,-999.0,47,-99.99,,,-99.99,,2013-01-03 18:32:00,
2013-01-03 10:53:00,57.0,37.0,30.18,SE,128,1.0,-999.0,47,-99.99,,,-99.99,,2013-01-03 18:53:00,
2013-01-03 11:02:00,56.0,36.0,30.18,South,175,1.0,-999.0,47,-99.99,,,-99.99,,2013-01-03 19:02:00,
2013-01-03 11:12:00,56.0,36.0,30.18,South,175,1.0,-999.0,47,-99.99,,,-99.99,,2013-01-03 19:12:00,
2013-01-03 11:56:00,59.0,36.0,30.16,South,183,3.0,-999.0,42,-99.99,,,-99.99,,2013-01-03 19:56:00,
2013-01-03 12:02:00,59.0,37.0,30.16,South,187,1.0,-999.0,43,-99.99,,,-99.99,,2013-01-03 20:02:00,
2013-01-03 12:12:00,59.0,37.0,30.16,South,187,1.0,-999.0,43,-99.99,,,-99.99,,2013-01-03 20:12:00,
2013-01-03 12:22:00,59.0,35.0,30.16,SSW,194,3.0,-999.0,41,-99.99,,,-99.99,,2013-01-03 20:22:00,
2013-01-03 12:32:00,58.0,38.0,30.15,SSW,213,2.0,-999.0,48,-99.99,,,-99.99,,2013-01-03 20:32:00,
2013-01-03 12:42:00,58.0,38.0,30.15,SSW,213,2.0,-999.0,48,-99.99,,,-99.99,,2013-01-03 20:42:00,
2013-01-03 12:53:00,58.0,38.0,30.15,SSW,213,2.0,-999.0,48,-99.99,,,-99.99,,2013-01-03 20:53:00,
2013-01-03 13:02:00,58.0,42.0,30.15,SSW,205,2.0,-999.0,56,-99.99,,,-99.99,,2013-01-03 21:02:00,
2013-01-03 13:22:00,58.0,40.0,30.15,SW,230,2.0,-999.0,51,-99.99,,,-99.99,,2013-01-03 21:22:00,
2013-01-03 13:34:00,58.0,42.0,30.15,SW,221,2.0,-999.0,56,-99.99,,,-99.99,,2013-01-03 21:34:00,
2013-01-03 13:53:00,58.0,37.0,30.15,WSW,245,2.0,-999.0,45,-99.99,,,-99.99,,2013-01-03 21:53:00,
2013-01-03 14:02:00,57.0,37.0,30.15,WSW,239,3.0,-999.0,47,-99.99,,,-99.99,,2013-01-03 22:02:00,
2013-01-03 14:12:00,57.0,37.0,30.15,WSW,239,3.0,-999.0,47,-99.99,,,-99.99,,2013-01-03 22:12:00,
2013-01-03 14:22:00,58.0,38.0,30.15,SW,221,2.0,-999.0,48,-99.99,,,-99.99,,2013-01-03 22:22:00,
2013-01-03 14:32:00,58.0,42.0,30.15,SW,223,1.0,-999.0,55,-99.99,,,-99.99,,2013-01-03 22:32:00,
2013-01-03 14:42:00,58.0,42.0,30.15,SW,223,1.0,-999.0,55,-99.99,,,-99.99,,2013-01-03 22:42:00,
2013-01-03 14:52:00,60.0,46.0,30.15,SW,222,1.0,-999.0,60,-99.99,,,-99.99,,2013-01-03 22:52:00,
2013-01-03 15:02:00,58.0,45.0,30.15,SW,216,2.0,-999.0,61,-99.99,,,-99.99,,2013-01-03 23:02:00,
2013-01-03 15:22:00,57.0,42.0,30.15,SW,229,3.0,-999.0,58,-99.99,,,-99.99,,2013-01-03 23:22:00,
2013-01-03 15:32:00,58.0,46.0,30.16,SW,227,1.0,-999.0,64,-99.99,,,-99.99,,2013-01-03 23:32:00,
2013-01-03 16:02:00,60.0,47.0,30.16,SW,221,0.0,-999.0,61,-99.99,,,-99.99,,2013-01-04 00:02:00,
2013-01-03 16:22:00,62.0,47.0,30.15,SW,221,0.0,-999.0,57,-99.99,,,-99.99,,2013-01-04 00:22:00,
2013-01-03 16:32:00,60.0,47.0,30.15,SW,220,0.0,-999.0,63,-99.99,,,-99.99,,2013-01-04 00:32:00,
2013-01-03 17:02:00,61.0,44.0,30.15,SW,222,0.0,-999.0,53,-99.99,,,-99.99,,2013-01-04 01:02:00,
2013-01-03 17:12:00,61.0,44.0,30.15,SW,222,0.0,-999.0,53,-99.99,,,-99.99,,2013-01-04 01:12:00,
2013-01-03 17:22:00,60.0,46.0,30.16,SW,224,0.0,-999.0,60,-99.99,,,-99.99,,2013-01-04 01:22:00,
2013-01-03 17:32:00,53.0,45.0,30.16,West,269,1.0,-999.0,73,-99.99,,,-99.99,,2013-01-04 01:32:00,
2013-01-03 17:42:00,53.0,45.0,30.16,West,269,1.0,-999.0,73,-99.99,,,-99.99,,2013-01-04 01:42:00,
2013-01-03 17:52:00,54.0,44.0,30.16,West,269,0.0,-999.0,70,-99.99,,,-99.99,,2013-01-04 01:52:00,
2013-01-03 18:02:00,54.0,44.0,30.16,WNW,284,1.0,-999.0,69,-99.99,,,-99.99,,2013-01-04 02:02:00,
2013-01-03 18:12:00,54.0,44.0,30.16,WNW,284,1.0,-999.0,69,-99.99,,,-99.99,,2013-01-04 02:12:00,
2013-01-03 18:22:00,53.0,41.0,30.17,WNW,284,0.0,-999.0,64,-99.99,,,-99.99,,2013-01-04 02:22:00,
2013-01-03 18:32:00,54.0,41.0,30.17,WNW,284,0.0,-999.0,61,-99.99,,,-99.99,,2013-01-04 02:32:00,
2013-01-03 18:42:00,54.0,41.0,30.17,WNW,284,0.0,-999.0,61,-99.99,,,-99.99,,2013-01-04 02:42:00,
2013-01-03 18:53:00,53.0,41.0,30.16,NE,38,3.0,-999.0,63,-99.99,,,-99.99,,2013-01-04 02:53:00,
2013-01-03 19:02:00,54.0,38.0,30.17,NE,38,0.0,-999.0,55,-99.99,,,-99.99,,2013-01-04 03:02:00,
2013-01-03 19:11:00,54.0,38.0,30.17,NE,38,0.0,-999.0,55,-99.99,,,-99.99,,2013-01-04 03:11:00,
2013-01-03 19:22:00,53.0,39.0,30.17,NE,34,0.0,-999.0,59,-99.99,,,-99.99,,2013-01-04 03:22:00,
2013-01-03 19:32:00,53.0,39.0,30.17,NE,34,0.0,-999.0,58,-99.99,,,-99.99,,2013-01-04 03:32:00,
2013-01-03 19:42:00,53.0,39.0,30.17,NE,34,0.0,-999.0,58,-99.99,,,-99.99,,2013-01-04 03:42:00,
2013-01-03 19:52:00,54.0,37.0,30.18,NE,34,0.0,-999.0,53,-99.99,,,-99.99,,2013-01-04 03:52:00,
2013-01-03 20:02:00,54.0,38.0,30.17,NNE,33,0.0,-999.0,55,-99.99,,,-99.99,,2013-01-04 04:02:00,
2013-01-03 20:22:00,54.0,37.0,30.18,NNE,33,0.0,-999.0,53,-99.99,,,-99.99,,2013-01-04 04:22:00,
2013-01-03 20:32:00,55.0,36.0,30.18,NNE,33,0.0,-999.0,49,-99.99,,,-99.99,,2013-01-04 04:32:00,
2013-01-03 20:52:00,55.0,31.0,30.18,NNE,32,0.0,-999.0,40,-99.99,,,-99.99,,2013-01-04 04:52:00,
2013-01-03 21:03:00,56.0,37.0,30.18,NNE,30,0.0,-999.0,49,-99.99,,,-99.99,,2013-01-04 05:03:00,
2013-01-03 21:22:00,55.0,36.0,30.18,NNE,30,0.0,-999.0,48,-99.99,,,-99.99,,2013-01-04 05:22:00,
2013-01-03 21:52:00,56.0,33.0,30.19,NNE,30,0.0,-999.0,41,-99.99,,,-99.99,,2013-01-04 05:52:00,
2013-01-03 22:02:00,55.0,33.0,30.19,NNE,30,0.0,-999.0,43,-99.99,,,-99.99,,2013-01-04 06:02:00,
2013-01-03 22:22:00,55.0,31.0,30.19,NNE,31,0.0,-999.0,39,-99.99,,,-99.99,,2013-01-04 06:22:00,
2013-01-03 22:32:00,56.0,31.0,30.19,NNE,31,1.0,-999.0,38,-99.99,,,-99.99,,2013-01-04 06:32:00,
2013-01-03 22:52:00,57.0,30.0,30.19,NNE,32,0.0,-999.0,36,-99.99,,,-99.99,,2013-01-04 06:52:00,
2013-01-03 23:01:00,57.0,30.0,30.19,NNE,32,0.0,-999.0,35,-99.99,,,-99.99,,2013-01-04 07:01:00,
2013-01-03 23:22:00,57.0,30.0,30.19,NNE,32,0.0,-999.0,35,-99.99,,,-99.99,,2013-01-04 07:22:00,
2013-01-03 23:32:00,57.0,30.0,30.18,NNE,32,0.0,-999.0,35,-99.99,,,-99.99,,2013-01-04 07:32:00,
2013-01-03 23:52:00,57.0,27.0,30.18,NNE,32,0.0,-999.0,32,-99.99,,,-99.99,,2013-01-04 07:52:00,